Time;durP1;ratioP1;P1;durP2;ratioP2;P2;SDS_P1;SDS_P2;PMS_P1;PMS_P2;Temp;Humidity;BMP_temperature;BMP_pressure;BME280_temperature;BME280_humidity;BME280_pressure;Samples;Min_cycle;Max_cycle;Signal;HPM_P1;HPM_P2
2021/09/14 00:02:14;;;;;;;13.45;9.32;;;21.50;99.90;;;;;;5111530;28;20027;-77
2021/09/14 00:04:40;;;;;;;8.80;7.97;;;21.50;99.90;;;;;;5089209;28;20107;-77
2021/09/14 00:07:10;;;;;;;9.15;8.32;;;21.50;99.90;;;;;;5106946;28;20193;-77
2021/09/14 00:09:36;;;;;;;9.65;8.85;;;21.50;99.90;;;;;;5112724;28;20081;-77
2021/09/14 00:12:03;;;;;;;9.35;8.45;;;21.50;99.90;;;;;;5084579;28;20031;-77
2021/09/14 00:14:29;;;;;;;11.95;8.95;;;21.40;99.90;;;;;;5105299;28;20116;-78
2021/09/14 00:16:55;;;;;;;10.88;9.07;;;21.40;99.90;;;;;;5109404;28;20568;-77
2021/09/14 00:19:22;;;;;;;9.00;8.13;;;21.40;99.90;;;;;;5107914;28;20069;-77
2021/09/14 00:21:48;;;;;;;9.00;8.15;;;21.50;99.90;;;;;;5110404;28;20086;-78
2021/09/14 00:24:14;;;;;;;11.68;8.60;;;21.60;99.90;;;;;;5104552;28;20016;-78
2021/09/14 00:26:40;;;;;;;9.23;8.38;;;21.60;99.90;;;;;;5118914;28;20032;-78
2021/09/14 00:29:06;;;;;;;8.85;8.05;;;21.60;99.90;;;;;;5107702;28;20093;-79
2021/09/14 00:31:33;;;;;;;8.82;8.02;;;21.60;99.90;;;;;;5097228;28;20106;-78
2021/09/14 00:34:02;;;;;;;10.10;9.15;;;21.70;99.90;;;;;;5099621;28;20023;-78
2021/09/14 00:36:33;;;;;;;13.27;8.88;;;21.70;99.90;;;;;;5097395;28;20121;-77
2021/09/14 00:38:59;;;;;;;8.65;7.82;;;21.70;99.90;;;;;;5092483;28;20480;-78
2021/09/14 00:41:25;;;;;;;8.80;8.00;;;21.70;99.90;;;;;;5112386;28;20085;-78
2021/09/14 00:44:34;;;;;;;8.75;7.95;;;21.70;99.90;;;;;;5097103;28;20016;-77
2021/09/14 00:47:09;;;;;;;12.32;8.80;;;21.70;99.90;;;;;;5100401;28;20422;-77
2021/09/14 00:50:10;;;;;;;10.05;9.13;;;21.70;99.90;;;;;;5117109;28;20077;-78
2021/09/14 00:52:37;;;;;;;9.57;8.48;;;21.70;99.90;;;;;;4996650;28;20026;-78
2021/09/14 00:55:04;;;;;;;12.98;8.88;;;21.70;99.90;;;;;;5076423;28;20119;-77
2021/09/14 00:57:30;;;;;;;12.40;8.07;;;21.70;99.90;;;;;;5066467;28;20024;-77
2021/09/14 00:59:56;;;;;;;9.70;8.70;;;21.70;99.90;;;;;;5093189;28;20027;-78
2021/09/14 01:02:25;;;;;;;14.82;8.05;;;21.60;99.90;;;;;;5096299;28;20051;-77
2021/09/14 01:04:54;;;;;;;12.20;8.45;;;21.60;99.90;;;;;;5117230;28;20545;-79
2021/09/14 01:07:21;;;;;;;10.50;7.65;;;21.50;99.90;;;;;;5107239;28;20094;-78
2021/09/14 01:09:47;;;;;;;12.75;7.60;;;21.50;99.90;;;;;;5106361;28;20051;-78
2021/09/14 01:12:14;;;;;;;11.07;8.45;;;21.50;99.90;;;;;;5108047;28;20023;-77
2021/09/14 01:14:51;;;;;;;11.35;8.75;;;21.40;99.90;;;;;;5103343;28;20031;-77
2021/09/14 01:17:22;;;;;;;11.02;7.75;;;21.40;99.90;;;;;;5116186;28;20026;-77
2021/09/14 01:19:48;;;;;;;10.55;8.38;;;21.40;99.90;;;;;;5088254;28;20031;-78
2021/09/14 01:22:15;;;;;;;8.35;7.45;;;21.30;99.90;;;;;;5109050;28;20044;-77
2021/09/14 01:24:41;;;;;;;11.63;8.02;;;21.30;99.90;;;;;;5091758;28;20051;-78
2021/09/14 01:27:07;;;;;;;12.63;8.13;;;21.30;99.90;;;;;;5080471;28;20666;-77
2021/09/14 01:32:30;;;;;;;9.30;7.40;;;21.20;99.90;;;;;;5116280;28;20035;-78
2021/09/14 01:35:07;;;;;;;12.02;7.63;;;21.20;99.90;;;;;;5103941;28;20389;-77
2021/09/14 01:37:33;;;;;;;9.10;8.23;;;21.10;99.90;;;;;;5084606;28;20054;-77
2021/09/14 01:39:59;;;;;;;10.63;8.60;;;21.10;99.90;;;;;;5101310;28;20478;-77
2021/09/14 01:42:24;;;;;;;12.25;7.72;;;21.10;99.90;;;;;;5085036;28;20107;-78
2021/09/14 01:44:50;;;;;;;9.40;7.60;;;21.10;99.90;;;;;;5086548;28;20031;-77
2021/09/14 01:47:16;;;;;;;10.00;8.00;;;21.10;99.90;;;;;;5104947;28;20024;-77
2021/09/14 01:49:42;;;;;;;9.10;8.20;;;21.00;99.90;;;;;;5094170;28;20722;-78
2021/09/14 01:52:08;;;;;;;8.60;7.90;;;21.00;99.90;;;;;;5097162;28;20034;-78
2021/09/14 01:54:34;;;;;;;8.60;7.85;;;21.10;99.90;;;;;;5092024;28;20161;-78
2021/09/14 01:57:00;;;;;;;18.30;8.50;;;21.10;99.90;;;;;;5104606;28;20449;-78
2021/09/14 01:59:26;;;;;;;10.90;8.27;;;21.00;99.90;;;;;;5089168;28;20072;-77
2021/09/14 02:02:05;;;;;;;9.32;8.52;;;21.00;99.90;;;;;;5109877;28;20063;-78
2021/09/14 02:04:52;;;;;;;9.25;8.35;;;21.00;99.90;;;;;;5091549;28;20043;-78
2021/09/14 02:24:24;;;;;;;8.98;7.82;;;20.80;99.90;;;;;;5095107;28;20057;-77
2021/09/14 02:43:18;;;;;;;16.52;9.10;;;20.60;99.90;;;;;;5042144;28;20024;-78
2021/09/14 02:59:37;;;;;;;12.63;7.93;;;20.50;99.90;;;;;;5092244;28;20024;-77
2021/09/14 03:02:04;;;;;;;10.10;8.90;;;20.50;99.90;;;;;;5091647;28;20024;-77
2021/09/14 03:04:30;;;;;;;9.02;8.23;;;20.50;99.90;;;;;;5106841;28;20031;-77
2021/09/14 03:06:57;;;;;;;7.88;7.28;;;20.50;99.90;;;;;;5108216;28;20015;-78
2021/09/14 03:09:23;;;;;;;13.25;9.07;;;20.50;99.90;;;;;;5094582;28;20101;-77
2021/09/14 03:11:49;;;;;;;12.70;7.82;;;20.50;99.90;;;;;;5094089;28;20027;-77
2021/09/14 03:14:15;;;;;;;12.00;9.77;;;20.50;99.90;;;;;;5098146;28;20058;-78
2021/09/14 03:16:41;;;;;;;9.75;8.07;;;20.60;99.90;;;;;;5089567;28;20450;-78
2021/09/14 03:19:07;;;;;;;9.10;8.20;;;20.50;99.90;;;;;;5101090;28;20076;-78
2021/09/14 03:21:33;;;;;;;11.77;8.43;;;20.40;99.90;;;;;;5104561;28;20024;-77
2021/09/14 03:23:59;;;;;;;11.55;7.80;;;20.40;99.90;;;;;;5106363;28;20015;-78
2021/09/14 03:26:25;;;;;;;8.95;8.10;;;20.40;99.90;;;;;;5102913;28;20046;-78
2021/09/14 03:28:51;;;;;;;10.88;8.15;;;20.40;99.90;;;;;;5107167;28;20139;-79
2021/09/14 03:31:17;;;;;;;11.50;8.35;;;20.40;99.90;;;;;;5108469;28;20016;-78
2021/09/14 03:33:44;;;;;;;15.07;8.55;;;20.30;99.90;;;;;;5104525;28;20466;-78
2021/09/14 03:36:10;;;;;;;12.80;9.10;;;20.40;99.90;;;;;;5114435;28;20499;-79
2021/09/14 03:38:36;;;;;;;10.25;8.35;;;20.40;99.90;;;;;;5113633;28;20572;-77
2021/09/14 03:41:02;;;;;;;9.63;8.38;;;20.40;99.90;;;;;;5082823;28;20043;-78
2021/09/14 03:43:28;;;;;;;11.65;9.00;;;20.40;99.90;;;;;;5102578;28;20115;-78
2021/09/14 03:45:54;;;;;;;11.20;9.23;;;20.30;99.90;;;;;;5085219;28;20024;-78
2021/09/14 03:48:20;;;;;;;9.57;8.52;;;20.20;99.90;;;;;;5094834;28;20032;-79
2021/09/14 03:50:47;;;;;;;11.77;8.75;;;20.20;99.90;;;;;;5118539;28;20469;-77
2021/09/14 03:53:13;;;;;;;8.55;7.75;;;20.20;99.90;;;;;;5106115;28;20200;-78
2021/09/14 03:55:39;;;;;;;9.32;7.97;;;20.20;99.90;;;;;;5102483;28;20050;-79
2021/09/14 03:58:06;;;;;;;14.48;7.95;;;20.20;99.90;;;;;;5095826;28;20109;-79
2021/09/14 04:00:32;;;;;;;10.32;8.68;;;20.10;99.90;;;;;;5107844;28;20035;-78
2021/09/14 04:03:13;;;;;;;12.00;8.77;;;20.20;99.90;;;;;;5106772;28;20459;-77
2021/09/14 04:10:35;;;;;;;11.35;8.35;;;20.20;99.90;;;;;;5105347;28;20028;-79
2021/09/14 04:13:01;;;;;;;10.30;7.85;;;20.20;99.90;;;;;;5079249;28;20028;-78
2021/09/14 04:15:27;;;;;;;11.38;8.10;;;20.20;99.90;;;;;;5083961;28;20454;-77
2021/09/14 04:17:52;;;;;;;8.85;8.07;;;20.20;99.90;;;;;;5081676;28;20393;-77
2021/09/14 04:20:19;;;;;;;9.80;8.90;;;20.30;99.90;;;;;;5117440;28;20396;-78
2021/09/14 04:22:44;;;;;;;10.88;8.82;;;20.30;99.90;;;;;;5086802;28;20032;-78
2021/09/14 04:25:11;;;;;;;17.23;8.90;;;20.30;99.90;;;;;;5098025;28;20023;-78
2021/09/14 04:27:37;;;;;;;17.00;8.75;;;20.30;99.90;;;;;;5086009;28;20038;-79
2021/09/14 04:30:05;;;;;;;15.65;9.00;;;20.20;99.90;;;;;;5088791;28;20059;-78
2021/09/14 04:32:32;;;;;;;11.10;9.63;;;20.20;99.90;;;;;;5092928;28;20040;-78
2021/09/14 04:34:58;;;;;;;10.60;9.32;;;20.20;99.90;;;;;;5089760;28;20049;-78
2021/09/14 04:37:24;;;;;;;13.75;8.77;;;20.20;99.90;;;;;;5110983;28;20026;-79
2021/09/14 04:39:51;;;;;;;12.40;9.98;;;20.30;99.90;;;;;;5108227;28;20111;-81
2021/09/14 04:42:17;;;;;;;12.50;9.73;;;20.30;99.90;;;;;;5100824;28;20534;-78
2021/09/14 04:44:47;;;;;;;13.70;9.18;;;20.30;99.90;;;;;;5098269;28;20111;-77
2021/09/14 04:47:16;;;;;;;16.92;9.95;;;20.30;99.90;;;;;;5095474;28;20027;-78
2021/09/14 04:49:42;;;;;;;12.65;9.25;;;20.30;99.90;;;;;;5102838;28;20032;-77
2021/09/14 04:52:11;;;;;;;17.50;10.05;;;20.40;99.90;;;;;;5116322;28;20015;-77
2021/09/14 04:54:50;;;;;;;9.40;8.40;;;20.40;99.90;;;;;;5095690;28;20024;-77
2021/09/14 04:57:16;;;;;;;15.50;9.20;;;20.40;99.90;;;;;;5091257;28;20028;-77
2021/09/14 04:59:42;;;;;;;14.35;10.70;;;20.40;99.90;;;;;;5089310;28;20032;-77
2021/09/14 05:02:08;;;;;;;15.27;9.60;;;20.40;99.90;;;;;;5107007;28;20077;-77
2021/09/14 05:04:34;;;;;;;14.85;9.18;;;20.50;99.90;;;;;;5105910;28;20512;-77
2021/09/14 05:07:00;;;;;;;17.15;10.13;;;20.50;99.90;;;;;;5115167;28;20023;-78
2021/09/14 05:09:25;;;;;;;21.65;10.52;;;20.50;99.90;;;;;;5107298;28;20035;-77
2021/09/14 05:11:51;;;;;;;14.63;9.07;;;20.50;99.90;;;;;;5107972;28;20024;-77
2021/09/14 05:14:17;;;;;;;20.23;10.60;;;20.50;99.90;;;;;;5091674;28;20046;-79
2021/09/14 05:16:43;;;;;;;17.33;9.73;;;20.60;99.90;;;;;;5103122;28;20063;-78
2021/09/14 05:19:10;;;;;;;12.95;8.45;;;20.60;99.90;;;;;;5097894;28;20046;-77
2021/09/14 05:21:45;;;;;;;9.93;9.00;;;20.70;99.90;;;;;;5110458;28;20031;-77
2021/09/14 05:24:11;;;;;;;17.15;10.02;;;20.70;99.90;;;;;;5086095;28;20016;-78
2021/09/14 05:26:38;;;;;;;16.05;10.15;;;20.80;99.90;;;;;;5094339;28;20486;-77
2021/09/14 05:29:04;;;;;;;15.70;9.32;;;20.80;99.90;;;;;;5106241;28;20027;-77
2021/09/14 05:31:30;;;;;;;16.58;10.15;;;20.80;99.90;;;;;;5112329;28;20035;-77
2021/09/14 05:33:59;;;;;;;13.13;10.32;;;20.80;99.90;;;;;;5108569;28;20099;-78
2021/09/14 05:36:32;;;;;;;19.35;9.45;;;20.80;99.90;;;;;;5083895;28;20031;-77
2021/09/14 05:38:58;;;;;;;20.60;9.85;;;20.80;99.90;;;;;;5083531;28;20134;-77
2021/09/14 05:41:24;;;;;;;21.17;9.48;;;20.80;99.90;;;;;;5086191;28;20056;-78
2021/09/14 05:43:50;;;;;;;15.15;10.85;;;20.80;99.90;;;;;;5092462;28;20413;-77
2021/09/14 05:46:18;;;;;;;26.45;10.73;;;20.90;99.90;;;;;;5102992;28;20019;-77
2021/09/14 05:48:44;;;;;;;12.15;9.65;;;20.90;99.90;;;;;;5107645;28;20016;-77
2021/09/14 05:51:10;;;;;;;15.30;10.00;;;20.90;99.90;;;;;;5097250;28;20150;-78
2021/09/14 05:53:36;;;;;;;19.95;11.05;;;21.00;99.90;;;;;;5093296;28;20487;-78
2021/09/14 05:56:03;;;;;;;16.63;9.43;;;21.00;99.90;;;;;;5090079;28;20024;-80
2021/09/14 05:58:31;;;;;;;19.63;10.30;;;21.10;99.90;;;;;;5093170;28;20035;-78
2021/09/14 06:00:58;;;;;;;24.02;11.05;;;21.20;99.90;;;;;;5093987;28;20103;-75
2021/09/14 06:03:24;;;;;;;16.30;9.93;;;21.20;99.90;;;;;;5105759;28;20032;-75
2021/09/14 06:05:49;;;;;;;19.00;11.40;;;21.30;99.90;;;;;;5074844;28;20027;-76
2021/09/14 06:08:15;;;;;;;25.10;10.93;;;21.30;99.90;;;;;;5109741;28;20028;-75
2021/09/14 06:10:41;;;;;;;13.18;9.90;;;21.60;99.90;;;;;;5099036;28;20031;-76
2021/09/14 06:13:07;;;;;;;13.95;8.48;;;21.70;99.90;;;;;;5107842;28;20086;-76
2021/09/14 06:15:33;;;;;;;16.92;10.10;;;21.80;99.90;;;;;;5096242;28;20028;-76
2021/09/14 06:17:59;;;;;;;12.10;9.32;;;21.80;99.90;;;;;;5107903;28;20024;-76
2021/09/14 06:20:25;;;;;;;13.15;9.57;;;21.80;99.90;;;;;;5072000;28;20041;-76
2021/09/14 06:22:50;;;;;;;15.05;10.32;;;21.80;99.90;;;;;;5108779;28;20452;-76
2021/09/14 06:25:16;;;;;;;22.63;9.48;;;21.80;99.90;;;;;;5108926;28;20066;-76
2021/09/14 06:27:42;;;;;;;15.90;9.98;;;21.80;99.90;;;;;;5089429;28;20085;-76
2021/09/14 06:30:09;;;;;;;18.05;10.88;;;21.90;99.90;;;;;;5082725;28;20042;-77
2021/09/14 06:32:35;;;;;;;23.20;11.77;;;21.90;99.90;;;;;;5109616;28;20058;-78
2021/09/14 06:35:01;;;;;;;17.98;12.70;;;22.00;99.90;;;;;;5096273;28;20012;-78
2021/09/14 06:37:27;;;;;;;19.70;10.90;;;22.00;99.90;;;;;;5101714;28;20480;-77
2021/09/14 06:39:53;;;;;;;20.65;10.35;;;22.10;99.90;;;;;;5102300;28;20358;-77
2021/09/14 06:42:19;;;;;;;19.95;11.45;;;22.20;99.90;;;;;;5114415;28;20023;-77
2021/09/14 06:44:45;;;;;;;20.20;10.88;;;22.30;99.90;;;;;;5099153;28;20029;-77
2021/09/14 06:47:11;;;;;;;16.75;12.45;;;22.30;99.90;;;;;;5075493;28;20086;-78
2021/09/14 06:49:37;;;;;;;17.33;10.45;;;22.30;99.90;;;;;;5108993;28;20031;-78
2021/09/14 06:52:03;;;;;;;15.95;10.05;;;22.50;99.90;;;;;;5096530;28;20065;-78
2021/09/14 06:54:29;;;;;;;17.58;10.45;;;22.50;99.90;;;;;;5089964;28;20515;-78
2021/09/14 06:56:55;;;;;;;20.38;10.73;;;22.60;99.90;;;;;;5114427;28;20027;-78
2021/09/14 06:59:21;;;;;;;12.93;11.05;;;22.70;99.90;;;;;;5115013;28;20491;-78
2021/09/14 07:01:50;;;;;;;17.45;10.75;;;22.80;99.90;;;;;;5120730;28;20032;-78
2021/09/14 07:04:16;;;;;;;10.13;9.20;;;23.00;99.90;;;;;;5106118;28;20023;-77
2021/09/14 07:06:42;;;;;;;21.92;11.00;;;23.10;99.90;;;;;;5111472;28;20107;-78
2021/09/14 07:09:09;;;;;;;16.92;10.38;;;23.20;99.90;;;;;;5113302;28;20069;-77
2021/09/14 07:11:35;;;;;;;18.83;11.20;;;23.30;99.90;;;;;;5101730;28;20027;-77
2021/09/14 07:14:01;;;;;;;18.83;11.10;;;23.40;99.90;;;;;;5103632;28;20403;-77
2021/09/14 07:16:27;;;;;;;17.23;11.77;;;23.60;99.90;;;;;;5107103;28;20028;-78
2021/09/14 07:18:53;;;;;;;16.98;12.07;;;23.80;99.90;;;;;;5105648;28;20054;-78
2021/09/14 07:21:19;;;;;;;18.52;10.32;;;23.90;99.90;;;;;;5106890;28;20452;-78
2021/09/14 07:23:45;;;;;;;18.35;11.20;;;23.90;99.90;;;;;;5092934;28;20032;-78
2021/09/14 07:26:11;;;;;;;12.82;9.70;;;24.00;99.90;;;;;;5101135;28;20031;-77
2021/09/14 07:28:37;;;;;;;18.35;10.38;;;24.10;99.90;;;;;;5102913;28;20089;-79
2021/09/14 07:31:05;;;;;;;19.50;10.23;;;24.20;99.90;;;;;;5103514;28;20035;-80
2021/09/14 07:33:31;;;;;;;34.85;11.68;;;24.30;99.90;;;;;;5111232;28;20073;-78
2021/09/14 07:35:57;;;;;;;20.38;10.13;;;24.30;99.90;;;;;;5090719;28;20020;-78
2021/09/14 07:38:25;;;;;;;24.15;12.20;;;24.30;99.90;;;;;;5108762;28;20477;-77
2021/09/14 07:40:51;;;;;;;19.67;11.00;;;24.30;99.90;;;;;;5079007;28;20024;-78
2021/09/14 07:43:20;;;;;;;33.78;11.25;;;24.30;99.90;;;;;;5092931;28;20190;-78
2021/09/14 07:45:46;;;;;;;25.40;11.38;;;24.40;99.90;;;;;;5099061;28;20036;-77
2021/09/14 07:48:12;;;;;;;34.22;12.25;;;24.40;99.90;;;;;;5107315;28;20027;-78
2021/09/14 07:50:41;;;;;;;36.58;11.77;;;24.40;99.90;;;;;;5114464;28;20125;-79
2021/09/14 07:53:07;;;;;;;25.75;10.82;;;24.40;99.90;;;;;;5100315;28;20032;-77
2021/09/14 07:55:34;;;;;;;38.13;11.13;;;24.40;99.90;;;;;;5113938;28;20392;-78
2021/09/14 07:58:07;;;;;;;28.95;11.65;;;24.30;99.90;;;;;;5100006;28;20626;-78
2021/09/14 08:00:33;;;;;;;52.25;14.77;;;24.30;99.90;;;;;;5094099;28;20032;-77
2021/09/14 08:03:03;;;;;;;42.50;13.32;;;24.20;99.90;;;;;;5114274;28;20046;-77
2021/09/14 08:05:37;;;;;;;35.95;13.55;;;24.20;99.90;;;;;;5114606;28;20038;-78
2021/09/14 08:08:03;;;;;;;19.52;10.90;;;24.40;99.90;;;;;;5110873;28;20437;-78
2021/09/14 08:10:29;;;;;;;23.80;11.38;;;24.40;99.90;;;;;;5068643;28;20038;-76
2021/09/14 08:13:00;;;;;;;14.00;9.70;;;24.40;99.90;;;;;;5074451;28;20055;-77
2021/09/14 08:15:26;;;;;;;23.02;12.02;;;24.60;99.90;;;;;;5092992;28;20315;-78
2021/09/14 08:17:52;;;;;;;29.30;12.27;;;24.60;99.90;;;;;;5105454;28;20059;-78
2021/09/14 08:20:22;;;;;;;16.52;11.13;;;24.50;99.90;;;;;;5111589;28;20649;-77
2021/09/14 08:22:47;;;;;;;13.48;10.15;;;24.50;99.90;;;;;;5099775;28;20038;-77
2021/09/14 08:25:13;;;;;;;14.27;10.18;;;24.60;99.90;;;;;;5107941;28;20081;-77
2021/09/14 08:27:41;;;;;;;20.48;12.27;;;24.60;99.90;;;;;;5112706;28;20027;-78
2021/09/14 08:30:08;;;;;;;19.38;11.25;;;24.80;99.90;;;;;;5110489;28;20019;-78
2021/09/14 08:32:34;;;;;;;22.20;9.95;;;24.90;99.90;;;;;;5111994;28;20032;-78
2021/09/14 08:35:00;;;;;;;15.98;11.18;;;24.90;99.90;;;;;;5120255;28;20072;-78
2021/09/14 08:37:26;;;;;;;16.35;9.90;;;25.00;99.90;;;;;;5118131;28;20027;-77
2021/09/14 08:39:52;;;;;;;16.45;8.93;;;25.10;99.90;;;;;;5100896;28;20074;-77
2021/09/14 08:42:20;;;;;;;13.35;9.65;;;25.20;99.90;;;;;;5090800;28;20489;-77
2021/09/14 08:44:46;;;;;;;19.17;9.55;;;25.30;99.90;;;;;;5106328;28;20051;-77
2021/09/14 08:47:12;;;;;;;14.70;10.07;;;25.30;99.90;;;;;;5097737;28;20039;-78
2021/09/14 08:49:47;;;;;;;19.38;9.07;;;25.30;99.90;;;;;;5115950;28;20062;-77
2021/09/14 08:52:15;;;;;;;10.80;9.68;;;25.50;99.90;;;;;;5108059;28;20024;-77
2021/09/14 08:54:41;;;;;;;16.63;9.50;;;25.60;99.90;;;;;;5110244;28;20031;-78
2021/09/14 08:57:07;;;;;;;20.27;9.63;;;25.60;99.90;;;;;;5115824;28;20019;-78
2021/09/14 08:59:34;;;;;;;17.77;9.85;;;25.60;99.90;;;;;;5104011;28;20066;-77
2021/09/14 09:02:05;;;;;;;11.85;9.98;;;25.60;99.90;;;;;;5106922;28;20108;-77
2021/09/14 09:04:32;;;;;;;14.65;9.15;;;25.50;99.90;;;;;;5097824;28;20019;-77
2021/09/14 09:06:58;;;;;;;20.48;9.80;;;25.60;99.90;;;;;;5114845;28;20023;-76
2021/09/14 09:09:26;;;;;;;12.27;10.50;;;25.60;99.90;;;;;;5114888;28;20034;-75
2021/09/14 09:12:02;;;;;;;17.20;9.07;;;25.80;99.90;;;;;;5114690;28;20412;-77
2021/09/14 09:14:40;;;;;;;17.13;9.40;;;25.90;99.90;;;;;;5087813;28;20386;-76
2021/09/14 09:17:14;;;;;;;19.38;11.35;;;26.00;99.90;;;;;;5105381;28;20032;-78
2021/09/14 09:19:44;;;;;;;13.88;8.85;;;25.90;99.90;;;;;;5100645;28;20544;-77
2021/09/14 09:22:14;;;;;;;22.95;9.20;;;25.90;99.90;;;;;;5106525;28;20505;-76
2021/09/14 09:24:45;;;;;;;11.63;9.35;;;25.90;99.90;;;;;;5080926;28;20035;-75
2021/09/14 09:27:14;;;;;;;16.02;9.13;;;25.90;99.90;;;;;;5094953;28;20461;-76
2021/09/14 09:29:40;;;;;;;15.38;9.00;;;25.90;99.90;;;;;;5113577;28;20024;-76
2021/09/14 09:32:07;;;;;;;14.38;10.32;;;25.90;99.90;;;;;;5105517;28;20028;-78
2021/09/14 09:34:33;;;;;;;13.77;10.05;;;25.90;99.90;;;;;;5089569;28;20027;-76
2021/09/14 09:37:07;;;;;;;14.40;11.60;;;25.90;99.90;;;;;;5100355;28;20110;-76
2021/09/14 09:39:45;;;;;;;18.13;10.02;;;26.00;99.90;;;;;;5107209;28;20039;-77
2021/09/14 09:42:12;;;;;;;16.08;10.85;;;26.00;99.90;;;;;;5094367;28;20051;-77
2021/09/14 09:44:39;;;;;;;17.08;10.13;;;26.10;99.90;;;;;;5106613;28;20115;-76
2021/09/14 09:47:05;;;;;;;16.45;11.40;;;26.30;99.90;;;;;;5101972;28;20038;-79
2021/09/14 09:49:33;;;;;;;14.98;9.70;;;26.30;99.90;;;;;;5099004;28;20032;-76
2021/09/14 09:52:00;;;;;;;15.35;9.35;;;26.30;99.90;;;;;;5086184;28;20015;-78
2021/09/14 09:54:26;;;;;;;14.23;8.90;;;26.20;99.90;;;;;;5106761;28;20027;-77
2021/09/14 09:56:53;;;;;;;15.10;11.02;;;26.10;99.90;;;;;;5105575;28;20059;-79
2021/09/14 09:59:19;;;;;;;13.38;10.02;;;26.10;99.90;;;;;;5087684;28;20029;-75
2021/09/14 10:02:04;;;;;;;15.63;11.20;;;26.00;99.90;;;;;;5086714;28;20028;-76
2021/09/14 10:04:38;;;;;;;12.05;10.38;;;26.10;99.90;;;;;;5104483;28;20024;-80
2021/09/14 10:07:06;;;;;;;19.60;10.65;;;26.10;99.90;;;;;;5107356;28;20027;-79
2021/09/14 10:09:32;;;;;;;14.40;9.65;;;26.10;99.90;;;;;;5106871;28;20031;-76
2021/09/14 10:11:59;;;;;;;15.82;9.65;;;26.00;99.90;;;;;;5094584;28;20082;-79
2021/09/14 10:14:25;;;;;;;11.27;10.07;;;26.10;99.90;;;;;;5100473;28;20027;-78
2021/09/14 10:16:51;;;;;;;11.13;8.63;;;26.10;99.90;;;;;;5107391;28;20426;-78
2021/09/14 10:19:26;;;;;;;18.60;10.15;;;26.20;99.90;;;;;;5108255;28;20024;-77
2021/09/14 10:22:08;;;;;;;20.67;10.75;;;26.30;99.90;;;;;;5112466;28;20027;-78
2021/09/14 10:24:35;;;;;;;14.68;9.85;;;26.20;99.90;;;;;;5114229;28;20040;-78
2021/09/14 10:27:07;;;;;;;21.08;9.85;;;26.30;99.90;;;;;;5114277;28;20057;-77
2021/09/14 10:29:34;;;;;;;19.13;10.90;;;26.20;99.90;;;;;;5105034;28;20030;-76
2021/09/14 10:32:05;;;;;;;16.00;10.15;;;26.20;99.90;;;;;;5109571;28;20028;-76
2021/09/14 10:34:32;;;;;;;10.88;9.45;;;26.20;99.90;;;;;;5109874;28;20027;-76
2021/09/14 10:37:07;;;;;;;16.92;9.50;;;26.20;99.90;;;;;;5113346;28;20365;-76
2021/09/14 10:39:37;;;;;;;16.23;10.65;;;26.20;99.90;;;;;;5097785;28;20075;-76
2021/09/14 10:42:23;;;;;;;22.20;9.67;;;26.10;99.90;;;;;;5101876;28;20569;-77
2021/09/14 10:44:51;;;;;;;12.05;9.45;;;26.10;99.90;;;;;;5086547;28;20378;-76
2021/09/14 10:47:23;;;;;;;14.63;8.95;;;26.10;99.90;;;;;;5100222;28;20282;-77
2021/09/14 10:49:59;;;;;;;13.93;9.48;;;26.00;99.90;;;;;;5107021;28;20016;-76
2021/09/14 10:52:36;;;;;;;17.00;9.30;;;26.10;99.90;;;;;;5113146;28;20389;-77
2021/09/14 10:55:19;;;;;;;16.98;9.02;;;26.10;99.90;;;;;;5102945;28;20485;-77
2021/09/14 10:57:46;;;;;;;13.02;8.88;;;26.20;99.90;;;;;;5110174;28;20031;-79
2021/09/14 11:00:15;;;;;;;22.35;9.27;;;26.30;99.90;;;;;;5103933;28;20524;-76
2021/09/14 11:02:41;;;;;;;13.60;8.88;;;26.30;99.90;;;;;;5113396;28;20049;-79
2021/09/14 11:05:10;;;;;;;12.90;8.65;;;26.40;99.90;;;;;;5104838;28;20473;-76
2021/09/14 11:07:36;;;;;;;15.20;8.55;;;26.40;99.90;;;;;;5101153;28;20036;-76
2021/09/14 11:10:13;;;;;;;18.05;9.25;;;26.30;99.90;;;;;;5092995;28;20047;-78
2021/09/14 11:12:46;;;;;;;22.10;8.50;;;26.20;99.90;;;;;;5103927;28;20055;-76
2021/09/14 11:15:12;;;;;;;11.68;9.15;;;26.20;99.90;;;;;;5091183;28;20022;-77
2021/09/14 11:17:38;;;;;;;13.95;9.38;;;26.20;99.90;;;;;;5094258;28;20474;-77
2021/09/14 11:20:10;;;;;;;9.95;9.05;;;26.20;99.90;;;;;;5112916;28;20111;-78
2021/09/14 11:22:38;;;;;;;13.27;9.77;;;26.20;99.90;;;;;;5113673;28;20499;-76
2021/09/14 11:25:05;;;;;;;14.57;9.13;;;26.20;99.90;;;;;;5101640;28;20389;-76
2021/09/14 11:27:31;;;;;;;11.32;9.10;;;26.00;99.90;;;;;;5092051;28;20070;-76
2021/09/14 11:29:58;;;;;;;10.27;8.73;;;26.00;99.90;;;;;;5102701;28;20030;-76
2021/09/14 11:32:27;;;;;;;16.02;9.43;;;25.90;99.90;;;;;;5113380;28;20035;-75
2021/09/14 11:34:55;;;;;;;12.77;9.32;;;26.00;99.90;;;;;;5095416;28;20107;-77
2021/09/14 11:37:31;;;;;;;18.67;9.88;;;26.10;99.90;;;;;;5112263;28;20058;-76
2021/09/14 11:39:58;;;;;;;18.05;9.20;;;26.20;99.90;;;;;;5097704;28;20027;-76
2021/09/14 11:42:25;;;;;;;16.83;9.77;;;26.30;99.90;;;;;;5101876;28;20024;-76
2021/09/14 11:45:07;;;;;;;12.80;9.05;;;26.50;99.90;;;;;;5090185;28;20575;-78
2021/09/14 11:47:42;;;;;;;12.10;8.77;;;26.50;99.90;;;;;;5080195;28;20397;-76
2021/09/14 11:50:08;;;;;;;16.65;9.52;;;26.50;99.90;;;;;;5084707;28;20032;-77
2021/09/14 11:52:34;;;;;;;14.35;9.80;;;26.60;99.90;;;;;;5072833;28;20469;-76
2021/09/14 11:55:07;;;;;;;8.73;7.93;;;26.60;99.90;;;;;;5110519;28;20028;-76
2021/09/14 11:57:33;;;;;;;12.40;8.15;;;26.60;99.90;;;;;;5099493;28;20503;-76
2021/09/14 12:00:11;;;;;;;14.68;8.73;;;26.60;99.90;;;;;;5103211;28;20102;-77
2021/09/14 12:02:37;;;;;;;9.60;8.07;;;26.60;99.90;;;;;;5115419;28;20020;-76
2021/09/14 12:05:03;;;;;;;12.65;8.63;;;26.70;99.90;;;;;;5096706;28;20168;-76
2021/09/14 12:07:29;;;;;;;10.70;9.70;;;26.70;99.90;;;;;;5112134;28;20107;-77
2021/09/14 12:10:15;;;;;;;17.38;8.90;;;26.80;99.90;;;;;;5109210;28;20114;-77
2021/09/14 12:12:49;;;;;;;11.95;8.18;;;26.90;99.90;;;;;;5096727;28;20501;-76
2021/09/14 12:15:15;;;;;;;18.48;9.90;;;27.10;99.90;;;;;;5090327;28;20036;-80
2021/09/14 12:17:40;;;;;;;15.65;10.27;;;27.10;99.90;;;;;;5102910;28;20020;-76
2021/09/14 12:20:07;;;;;;;11.18;8.68;;;27.10;99.90;;;;;;5115932;28;20028;-76
2021/09/14 12:22:33;;;;;;;9.98;8.18;;;26.90;99.90;;;;;;5116861;28;20028;-76
2021/09/14 12:24:59;;;;;;;27.58;10.43;;;26.90;99.90;;;;;;5106532;28;20237;-76
2021/09/14 12:27:25;;;;;;;11.55;9.23;;;27.00;99.90;;;;;;5103308;28;20033;-76
2021/09/14 12:29:51;;;;;;;18.70;9.10;;;27.20;99.90;;;;;;5078630;28;20051;-77
2021/09/14 12:32:16;;;;;;;11.85;7.25;;;27.20;99.90;;;;;;5115133;28;20457;-77
2021/09/14 12:34:42;;;;;;;25.33;8.80;;;27.10;99.90;;;;;;5109849;28;20031;-77
2021/09/14 12:37:09;;;;;;;14.02;7.50;;;27.10;99.90;;;;;;5104584;28;20052;-77
2021/09/14 12:39:35;;;;;;;13.98;8.73;;;27.00;99.90;;;;;;5095864;28;20036;-77
2021/09/14 12:42:01;;;;;;;11.75;8.43;;;27.00;99.90;;;;;;5103578;28;20338;-77
2021/09/14 12:44:27;;;;;;;18.67;8.30;;;27.00;99.90;;;;;;5099969;28;20035;-77
2021/09/14 12:46:55;;;;;;;14.57;7.57;;;27.10;99.90;;;;;;5098175;28;20028;-77
2021/09/14 12:49:22;;;;;;;15.05;9.68;;;27.10;99.90;;;;;;5095937;28;20032;-76
2021/09/14 12:51:48;;;;;;;17.58;8.63;;;27.10;99.90;;;;;;5101893;28;20031;-75
2021/09/14 12:54:13;;;;;;;11.55;8.82;;;27.10;99.90;;;;;;5107809;28;20020;-76
2021/09/14 12:56:40;;;;;;;13.40;8.32;;;27.10;99.90;;;;;;5114949;28;20027;-76
2021/09/14 12:59:06;;;;;;;10.68;7.70;;;27.00;99.90;;;;;;5107425;28;20016;-76
2021/09/14 13:01:32;;;;;;;21.30;8.98;;;26.80;99.90;;;;;;5109727;28;20042;-75
2021/09/14 13:03:58;;;;;;;9.02;8.30;;;26.90;99.90;;;;;;5115794;28;20051;-77
2021/09/14 13:06:24;;;;;;;14.98;8.93;;;27.00;99.90;;;;;;5105489;28;20098;-76
2021/09/14 13:08:50;;;;;;;13.93;9.52;;;26.90;99.90;;;;;;5115151;28;20037;-78
2021/09/14 13:11:16;;;;;;;11.50;8.52;;;27.00;99.90;;;;;;5113778;28;20436;-76
2021/09/14 13:16:27;;;;;;;19.63;9.07;;;27.40;99.90;;;;;;5108202;28;20102;-76
2021/09/14 13:18:54;;;;;;;11.55;8.25;;;27.60;99.90;;;;;;5095208;28;20366;-77
2021/09/14 13:21:22;;;;;;;18.00;8.80;;;27.80;99.90;;;;;;5115435;28;20039;-76
2021/09/14 13:23:49;;;;;;;20.10;8.95;;;27.90;99.90;;;;;;5106565;28;20085;-78
2021/09/14 13:26:16;;;;;;;21.30;8.50;;;27.80;99.90;;;;;;5103349;28;20019;-76
2021/09/14 13:28:43;;;;;;;12.25;9.73;;;27.80;99.90;;;;;;5092037;28;20390;-76
2021/09/14 13:31:09;;;;;;;10.40;8.88;;;27.90;99.90;;;;;;5114699;28;20028;-78
2021/09/14 13:33:36;;;;;;;17.45;8.32;;;28.00;99.90;;;;;;5096174;28;20131;-79
2021/09/14 13:36:03;;;;;;;10.70;9.57;;;28.10;99.90;;;;;;5114786;28;20048;-77
2021/09/14 13:38:30;;;;;;;13.50;8.10;;;28.00;99.90;;;;;;5106898;28;20583;-76